Ofertas de vuelos a Salta

Encontranos en
En el mes de
SalidaRegresoDíasConexionesDisponibilidadDisp.
Dom 02/05/20212021-05-02Dom 09/05/20212021-05-097ConexionesVer disponibilidad>05https://an.despegar.com/ad/1040?q=shop%2Fflights%2Fresults%2Froundtrip%2FBUE%2FSLA%2F2021-05-02%2F2021-05-09%2F1%2F0%2F0
Mie 05/05/20212021-05-05Mie 12/05/20212021-05-127ConexionesVer disponibilidad>05https://an.despegar.com/ad/1040?q=shop%2Fflights%2Fresults%2Froundtrip%2FBUE%2FSLA%2F2021-05-05%2F2021-05-12%2F1%2F0%2F0
Jue 06/05/20212021-05-06Jue 13/05/20212021-05-137ConexionesVer disponibilidad>05https://an.despegar.com/ad/1040?q=shop%2Fflights%2Fresults%2Froundtrip%2FBUE%2FSLA%2F2021-05-06%2F2021-05-13%2F1%2F0%2F0
Mar 11/05/20212021-05-11Mar 18/05/20212021-05-187ConexionesVer disponibilidad>05https://an.despegar.com/ad/1040?q=shop%2Fflights%2Fresults%2Froundtrip%2FBUE%2FSLA%2F2021-05-11%2F2021-05-18%2F1%2F0%2F0
Jue 20/05/20212021-05-20Jue 27/05/20212021-05-277ConexionesVer disponibilidad>05https://an.despegar.com/ad/1040?q=shop%2Fflights%2Fresults%2Froundtrip%2FBUE%2FSLA%2F2021-05-20%2F2021-05-27%2F1%2F0%2F0
Mie 26/05/20212021-05-26Mie 02/06/20212021-06-027ConexionesVer disponibilidad>05https://an.despegar.com/ad/1040?q=shop%2Fflights%2Fresults%2Froundtrip%2FBUE%2FSLA%2F2021-05-26%2F2021-06-02%2F1%2F0%2F0
Jue 27/05/20212021-05-27Sab 12/06/20212021-06-1216ConexionesVer disponibilidad>05https://an.despegar.com/ad/1040?q=shop%2Fflights%2Fresults%2Froundtrip%2FBUE%2FSLA%2F2021-05-27%2F2021-06-12%2F1%2F0%2F0
Sab 29/05/20212021-05-29Sab 05/06/20212021-06-057ConexionesVer disponibilidad>05https://an.despegar.com/ad/1040?q=shop%2Fflights%2Fresults%2Froundtrip%2FBUE%2FSLA%2F2021-05-29%2F2021-06-05%2F1%2F0%2F0
Mar 01/06/20212021-06-01Mar 08/06/20212021-06-087ConexionesVer disponibilidad>06https://an.despegar.com/ad/1040?q=shop%2Fflights%2Fresults%2Froundtrip%2FBUE%2FSLA%2F2021-06-01%2F2021-06-08%2F1%2F0%2F0
Vie 04/06/20212021-06-04Vie 11/06/20212021-06-117ConexionesVer disponibilidad>06https://an.despegar.com/ad/1040?q=shop%2Fflights%2Fresults%2Froundtrip%2FBUE%2FSLA%2F2021-06-04%2F2021-06-11%2F1%2F0%2F0
Lun 07/06/20212021-06-07Lun 14/06/20212021-06-147ConexionesVer disponibilidad>06https://an.despegar.com/ad/1040?q=shop%2Fflights%2Fresults%2Froundtrip%2FBUE%2FSLA%2F2021-06-07%2F2021-06-14%2F1%2F0%2F0
Jue 10/06/20212021-06-10Jue 17/06/20212021-06-177ConexionesVer disponibilidad>06https://an.despegar.com/ad/1040?q=shop%2Fflights%2Fresults%2Froundtrip%2FBUE%2FSLA%2F2021-06-10%2F2021-06-17%2F1%2F0%2F0
Dom 13/06/20212021-06-13Dom 20/06/20212021-06-207ConexionesVer disponibilidad>06https://an.despegar.com/ad/1040?q=shop%2Fflights%2Fresults%2Froundtrip%2FBUE%2FSLA%2F2021-06-13%2F2021-06-20%2F1%2F0%2F0
Mie 16/06/20212021-06-16Mie 23/06/20212021-06-237ConexionesVer disponibilidad>06https://an.despegar.com/ad/1040?q=shop%2Fflights%2Fresults%2Froundtrip%2FBUE%2FSLA%2F2021-06-16%2F2021-06-23%2F1%2F0%2F0
Sab 19/06/20212021-06-19Sab 26/06/20212021-06-267ConexionesVer disponibilidad>06https://an.despegar.com/ad/1040?q=shop%2Fflights%2Fresults%2Froundtrip%2FBUE%2FSLA%2F2021-06-19%2F2021-06-26%2F1%2F0%2F0
Mar 22/06/20212021-06-22Mar 29/06/20212021-06-297ConexionesVer disponibilidad>06https://an.despegar.com/ad/1040?q=shop%2Fflights%2Fresults%2Froundtrip%2FBUE%2FSLA%2F2021-06-22%2F2021-06-29%2F1%2F0%2F0
Vie 25/06/20212021-06-25Vie 02/07/20212021-07-027ConexionesVer disponibilidad>06https://an.despegar.com/ad/1040?q=shop%2Fflights%2Fresults%2Froundtrip%2FBUE%2FSLA%2F2021-06-25%2F2021-07-02%2F1%2F0%2F0
Lun 28/06/20212021-06-28Lun 05/07/20212021-07-057ConexionesVer disponibilidad>06https://an.despegar.com/ad/1040?q=shop%2Fflights%2Fresults%2Froundtrip%2FBUE%2FSLA%2F2021-06-28%2F2021-07-05%2F1%2F0%2F0
Jue 01/07/20212021-07-01Jue 08/07/20212021-07-087ConexionesVer disponibilidad>07https://an.despegar.com/ad/1040?q=shop%2Fflights%2Fresults%2Froundtrip%2FBUE%2FSLA%2F2021-07-01%2F2021-07-08%2F1%2F0%2F0
Mie 07/07/20212021-07-07Mie 14/07/20212021-07-147ConexionesVer disponibilidad>07https://an.despegar.com/ad/1040?q=shop%2Fflights%2Fresults%2Froundtrip%2FBUE%2FSLA%2F2021-07-07%2F2021-07-14%2F1%2F0%2F0
Mar 13/07/20212021-07-13Mar 20/07/20212021-07-207ConexionesVer disponibilidad>07https://an.despegar.com/ad/1040?q=shop%2Fflights%2Fresults%2Froundtrip%2FBUE%2FSLA%2F2021-07-13%2F2021-07-20%2F1%2F0%2F0
Vie 16/07/20212021-07-16Vie 23/07/20212021-07-237ConexionesVer disponibilidad>07https://an.despegar.com/ad/1040?q=shop%2Fflights%2Fresults%2Froundtrip%2FBUE%2FSLA%2F2021-07-16%2F2021-07-23%2F1%2F0%2F0
Jue 22/07/20212021-07-22Jue 29/07/20212021-07-297ConexionesVer disponibilidad>07https://an.despegar.com/ad/1040?q=shop%2Fflights%2Fresults%2Froundtrip%2FBUE%2FSLA%2F2021-07-22%2F2021-07-29%2F1%2F0%2F0
Mie 28/07/20212021-07-28Mie 04/08/20212021-08-047ConexionesVer disponibilidad>07https://an.despegar.com/ad/1040?q=shop%2Fflights%2Fresults%2Froundtrip%2FBUE%2FSLA%2F2021-07-28%2F2021-08-04%2F1%2F0%2F0
Mie 11/08/20212021-08-11Mie 18/08/20212021-08-187ConexionesVer disponibilidad>08https://an.despegar.com/ad/1040?q=shop%2Fflights%2Fresults%2Froundtrip%2FBUE%2FSLA%2F2021-08-11%2F2021-08-18%2F1%2F0%2F0

Es posible que la disponibilidad de vuelos hacia este destino se vea afectada debido al COVID-19. Si es tu caso, te invitamos a realizar una nueva búsqueda a través de este link.

Asistencia al viajero

Cotiza tu ASSIST CARD

Origen
Destino

Información general sobre Salta

Salta es una provincia que se encuentra ubicada en el noroeste argentino y limita con Chile, Bolivia y Paraguay. En ella se distinguen cuatro diferentes postales que cuentan con distintos relieves y climas como así también diversa flora y fauna. Debido a su popularidad, la región tiene una gran infraestructura hotelera.

Pasajes Aéreos y Vuelos Baratos a Salta

Preguntas frecuentes sobre Salta

🎫 ¿En qué temporada es más barato viajar a Salta?

Los meses de mayo y septiembre se corresponden con la temporada baja que está acompañada con un clima muy agradable. Además, será posible encontrar un poco más de tranquilidad que en temporada alta y buenas promociones. Recordá que en el blog de Promociones Aéreas podés encontrar las mejores ofertas de vuelos a Salta

📷 ¿Qué excursiones hacer en Salta?

En Salta hay diversas excursiones que se pueden realizar entre las que se encuentran los Free Tours, el Tren de las Nubes, Cachi, Iruya y las Salinas Grandes, entre otros.

🚌 ¿Cómo ir desde Salta a Jujuy?

Debido a la proximidad de una con la otra, las dos maneras recomendadas son via terrestre. Por un lado está la posibilidad de realizar el trayecto en micro en 2 horas o en auto en 1 hora y 48 minutos.

⌚ ¿Cuánto dura el vuelo hasta Salta?

La distancia que separa Salta de Buenos Aires es de 1274 kilómetros que se cubren en un tiempo aproximado de 2 horas.

Descargá gratis nuestra nueva app para Android y iOS.
Suscribite a las notificaciones de Chrome y Safari.
Seguinos en Facebook, Twitter e Instagram
Suscribite a nuestro newsletter aquí.